Time;durP1;ratioP1;P1;durP2;ratioP2;P2;SDS_P1;SDS_P2;PMS_P1;PMS_P2;Temp;Humidity;BMP_temperature;BMP_pressure;BME280_temperature;BME280_humidity;BME280_pressure;Samples;Min_cycle;Max_cycle;Signal;HPM_P1;HPM_P2
2021/08/28 00:00:34;;;;;;;3.08;0.70;;;14.80;87.40;;;;;;5041045;28;20037;-84
2021/08/28 00:03:01;;;;;;;4.45;0.90;;;14.80;87.40;;;;;;5026418;28;20040;-85
2021/08/28 00:05:28;;;;;;;3.40;0.80;;;14.80;87.40;;;;;;5032984;28;20048;-85
2021/08/28 00:07:56;;;;;;;2.75;0.60;;;14.80;87.40;;;;;;5033980;28;20492;-84
2021/08/28 00:10:24;;;;;;;2.42;0.88;;;14.80;88.00;;;;;;5038907;28;20135;-85
2021/08/28 00:12:51;;;;;;;2.70;0.60;;;14.80;87.50;;;;;;5022391;28;20075;-84
2021/08/28 00:15:18;;;;;;;4.00;0.50;;;14.80;87.50;;;;;;5010283;28;20131;-85
2021/08/28 00:17:46;;;;;;;1.55;0.40;;;14.80;87.60;;;;;;5025451;28;20059;-85
2021/08/28 00:20:15;;;;;;;4.82;0.50;;;14.90;87.60;;;;;;5022678;28;20072;-84
2021/08/28 00:22:43;;;;;;;2.25;0.65;;;14.90;87.50;;;;;;5021527;28;20047;-85
2021/08/28 00:25:12;;;;;;;1.50;0.70;;;15.00;87.30;;;;;;5007714;28;20516;-85
2021/08/28 00:27:39;;;;;;;0.85;0.40;;;15.10;87.30;;;;;;5024503;28;20068;-85
2021/08/28 00:30:08;;;;;;;1.75;0.50;;;15.10;87.20;;;;;;5019630;28;20103;-85
2021/08/28 00:32:36;;;;;;;2.13;0.50;;;15.20;87.20;;;;;;5024069;28;20458;-85
2021/08/28 00:35:04;;;;;;;3.22;0.68;;;15.20;87.10;;;;;;5012404;28;20595;-83
2021/08/28 00:37:32;;;;;;;3.05;0.80;;;15.30;87.10;;;;;;5021604;28;20523;-84
2021/08/28 00:39:59;;;;;;;2.22;0.70;;;15.30;87.10;;;;;;5004213;28;20048;-84
2021/08/28 00:42:26;;;;;;;2.72;0.60;;;15.30;87.10;;;;;;5021690;28;20508;-84
2021/08/28 00:44:54;;;;;;;2.83;0.65;;;15.40;87.20;;;;;;5006935;28;20041;-84
2021/08/28 00:47:27;;;;;;;5.97;0.85;;;15.40;88.00;;;;;;5006922;28;20049;-84
2021/08/28 00:49:55;;;;;;;3.83;0.63;;;15.40;87.40;;;;;;5034704;28;20044;-85
2021/08/28 00:52:22;;;;;;;3.28;0.88;;;15.40;87.40;;;;;;5021100;28;20832;-85
2021/08/28 00:54:50;;;;;;;2.60;0.88;;;15.40;87.40;;;;;;5023305;28;20066;-84
2021/08/28 00:57:18;;;;;;;3.15;1.05;;;15.50;87.50;;;;;;5019242;28;20045;-84
2021/08/28 00:59:48;;;;;;;2.88;0.65;;;15.50;87.40;;;;;;5012568;28;20041;-84
2021/08/28 01:02:19;;;;;;;3.03;0.73;;;15.50;87.30;;;;;;5001506;28;20068;-84
2021/08/28 01:04:57;;;;;;;2.67;0.57;;;15.50;87.30;;;;;;5027576;28;20401;-86
2021/08/28 01:07:28;;;;;;;4.65;0.57;;;15.50;87.20;;;;;;5049466;28;20110;-86
2021/08/28 01:10:15;;;;;;;2.70;0.98;;;15.50;87.40;;;;;;5039320;28;20048;-85
2021/08/28 01:13:10;;;;;;;2.85;0.85;;;15.50;87.40;;;;;;4974517;28;20477;-85
2021/08/28 01:15:39;;;;;;;2.15;0.63;;;15.50;87.50;;;;;;5019287;28;20053;-85
2021/08/28 01:18:10;;;;;;;2.28;0.73;;;15.50;87.50;;;;;;5052507;28;20060;-85
2021/08/28 01:20:46;;;;;;;2.13;0.60;;;15.50;87.50;;;;;;5034313;28;20041;-85
2021/08/28 01:23:33;;;;;;;3.00;0.77;;;15.50;87.50;;;;;;5032173;28;20045;-84
2021/08/28 01:29:45;;;;;;;5.07;0.90;;;15.50;87.80;;;;;;5021724;28;20062;-84
2021/08/28 01:32:14;;;;;;;3.10;0.77;;;15.50;87.80;;;;;;5018060;28;20073;-86
2021/08/28 01:34:42;;;;;;;4.57;0.90;;;15.50;87.80;;;;;;5018274;28;20045;-85
2021/08/28 01:37:17;;;;;;;3.85;1.13;;;15.50;88.00;;;;;;5032134;28;20171;-85
2021/08/28 01:39:53;;;;;;;2.47;0.60;;;15.50;88.00;;;;;;5014120;28;20045;-85
2021/08/28 01:42:30;;;;;;;3.55;1.00;;;15.50;88.00;;;;;;5026939;28;20048;-85
2021/08/28 01:44:59;;;;;;;5.35;1.30;;;15.50;88.20;;;;;;5045171;28;20045;-85
2021/08/28 01:47:29;;;;;;;3.60;0.90;;;15.50;88.10;;;;;;5008571;28;20036;-84
2021/08/28 01:49:58;;;;;;;2.58;0.98;;;15.50;88.00;;;;;;5033836;28;20053;-85
2021/08/28 01:52:25;;;;;;;3.03;0.93;;;15.50;88.10;;;;;;5015861;28;20485;-85
2021/08/28 01:54:53;;;;;;;3.38;0.70;;;15.50;88.10;;;;;;5020833;28;20494;-85
2021/08/28 01:57:26;;;;;;;2.33;0.82;;;15.50;88.20;;;;;;5043486;28;20041;-84
2021/08/28 02:00:14;;;;;;;1.75;0.60;;;15.40;88.30;;;;;;5030852;28;20033;-84
2021/08/28 02:02:42;;;;;;;3.80;1.08;;;15.40;88.50;;;;;;5000847;28;20827;-84
2021/08/28 02:05:12;;;;;;;4.00;0.80;;;15.40;88.50;;;;;;5042321;28;20064;-85
2021/08/28 02:08:03;;;;;;;3.95;0.80;;;15.40;88.60;;;;;;5035861;28;20448;-85
2021/08/28 02:10:43;;;;;;;3.35;0.80;;;15.30;88.60;;;;;;5025221;28;20053;-85
2021/08/28 02:13:20;;;;;;;2.85;0.90;;;15.30;88.70;;;;;;5020469;28;20056;-84
2021/08/28 02:15:51;;;;;;;3.05;0.60;;;15.30;88.70;;;;;;5027552;28;20053;-85
2021/08/28 02:18:26;;;;;;;2.53;0.60;;;15.40;88.80;;;;;;5055446;28;20045;-84
2021/08/28 02:21:13;;;;;;;3.30;0.70;;;15.40;88.80;;;;;;5029813;28;20052;-84
2021/08/28 02:23:56;;;;;;;2.17;0.75;;;15.40;88.70;;;;;;5035770;28;20045;-85
2021/08/28 02:26:34;;;;;;;2.00;0.65;;;15.40;88.70;;;;;;5018527;28;20045;-84
2021/08/28 02:29:04;;;;;;;3.80;0.70;;;15.40;88.70;;;;;;5037777;28;20041;-85
2021/08/28 02:31:37;;;;;;;2.45;0.80;;;15.50;88.70;;;;;;5021236;28;20052;-84
2021/08/28 02:34:09;;;;;;;4.07;0.70;;;15.50;88.60;;;;;;5035096;28;20043;-84
2021/08/28 02:36:39;;;;;;;2.47;0.68;;;15.50;88.70;;;;;;5023286;28;20040;-84
2021/08/28 02:39:10;;;;;;;2.97;1.00;;;15.50;88.70;;;;;;5017473;28;20041;-84
2021/08/28 02:41:42;;;;;;;1.85;0.55;;;15.40;88.80;;;;;;5009542;28;20037;-85
2021/08/28 02:44:11;;;;;;;3.63;0.60;;;15.50;88.90;;;;;;5022544;28;20048;-83
2021/08/28 02:46:40;;;;;;;2.97;0.63;;;15.40;88.90;;;;;;5035440;28;20493;-84
2021/08/28 02:49:11;;;;;;;3.75;0.98;;;15.40;89.00;;;;;;5027858;28;20049;-86
2021/08/28 02:51:42;;;;;;;5.22;0.98;;;15.50;89.10;;;;;;5002494;28;20152;-84
2021/08/28 02:54:12;;;;;;;3.97;0.70;;;15.50;89.10;;;;;;5011551;28;20047;-85
2021/08/28 02:56:40;;;;;;;4.40;0.80;;;15.50;89.10;;;;;;5041466;28;20068;-85
2021/08/28 02:59:09;;;;;;;3.13;0.80;;;15.60;89.10;;;;;;5019415;28;20045;-86
2021/08/28 03:01:39;;;;;;;2.40;0.85;;;15.60;89.10;;;;;;5015739;28;20481;-84
2021/08/28 03:04:07;;;;;;;3.03;0.68;;;15.70;89.20;;;;;;5016731;28;20087;-84
2021/08/28 03:06:35;;;;;;;3.33;0.93;;;15.70;89.00;;;;;;5014698;28;20044;-84
2021/08/28 03:09:02;;;;;;;8.25;0.90;;;15.70;89.00;;;;;;5016098;28;20044;-84
2021/08/28 03:11:30;;;;;;;2.70;0.90;;;15.70;89.00;;;;;;5016307;28;21787;-85
2021/08/28 03:13:58;;;;;;;3.90;1.02;;;15.70;89.00;;;;;;5018431;28;20443;-85
2021/08/28 03:16:29;;;;;;;2.80;0.80;;;15.70;89.10;;;;;;5013059;28;20099;-84
2021/08/28 03:19:01;;;;;;;1.85;0.80;;;15.70;89.20;;;;;;5034969;28;20048;-86
2021/08/28 03:21:31;;;;;;;2.35;0.70;;;15.70;89.40;;;;;;5022912;28;21216;-85
2021/08/28 03:24:01;;;;;;;2.00;0.85;;;15.60;89.40;;;;;;5028660;28;20069;-85
2021/08/28 03:26:53;;;;;;;1.65;0.60;;;15.60;89.50;;;;;;5005152;28;20041;-85
2021/08/28 03:29:23;;;;;;;3.83;0.80;;;15.60;89.60;;;;;;5029176;28;20520;-85
2021/08/28 03:31:52;;;;;;;2.38;0.85;;;15.60;89.80;;;;;;5016365;28;20045;-85
2021/08/28 03:34:20;;;;;;;4.68;0.65;;;15.60;89.80;;;;;;5030932;28;20481;-85
2021/08/28 03:36:48;;;;;;;4.07;0.40;;;15.60;90.20;;;;;;4986944;28;20049;-85
2021/08/28 03:39:15;;;;;;;0.93;0.40;;;15.50;89.90;;;;;;5028644;28;20037;-84
2021/08/28 03:41:44;;;;;;;1.17;0.40;;;15.60;90.00;;;;;;5013474;28;20056;-84
2021/08/28 03:44:18;;;;;;;2.47;0.57;;;15.60;89.90;;;;;;5018618;28;20053;-85
2021/08/28 03:46:47;;;;;;;2.03;0.43;;;15.70;89.90;;;;;;5026653;28;20049;-84
2021/08/28 03:49:15;;;;;;;4.05;0.70;;;15.60;89.80;;;;;;5018276;28;20045;-85
2021/08/28 03:51:43;;;;;;;2.10;0.70;;;15.70;90.20;;;;;;5018472;28;20075;-85
2021/08/28 03:54:10;;;;;;;2.22;0.65;;;15.70;89.80;;;;;;5028101;28;20543;-84
2021/08/28 03:56:38;;;;;;;2.28;0.70;;;15.70;89.70;;;;;;5019773;28;20397;-84
2021/08/28 03:59:05;;;;;;;1.77;0.90;;;15.70;89.70;;;;;;5005793;28;20041;-84
2021/08/28 04:01:33;;;;;;;1.55;0.70;;;15.70;89.80;;;;;;5007435;28;20127;-84
2021/08/28 04:04:07;;;;;;;1.50;0.50;;;15.70;89.80;;;;;;5003840;28;20052;-85
2021/08/28 04:06:34;;;;;;;1.58;0.70;;;15.70;89.80;;;;;;5004897;28;20542;-85
2021/08/28 04:09:01;;;;;;;2.97;0.70;;;15.80;89.90;;;;;;5008676;28;20049;-85
2021/08/28 04:11:28;;;;;;;1.38;0.45;;;15.80;89.90;;;;;;5013093;28;20098;-82
2021/08/28 04:13:55;;;;;;;1.58;0.52;;;15.70;89.90;;;;;;5028568;28;20036;-85
2021/08/28 04:16:22;;;;;;;3.15;0.65;;;15.80;90.00;;;;;;5006092;28;20037;-85
2021/08/28 04:18:54;;;;;;;2.65;0.70;;;15.70;90.00;;;;;;5029431;28;20037;-85
2021/08/28 04:21:40;;;;;;;2.95;0.75;;;15.80;90.00;;;;;;5034828;28;20492;-87
2021/08/28 04:24:15;;;;;;;3.13;0.70;;;15.70;90.10;;;;;;5022668;28;20481;-86
2021/08/28 04:27:03;;;;;;;1.10;0.50;;;15.70;90.10;;;;;;5029217;28;20052;-86
2021/08/28 04:29:30;;;;;;;1.38;0.60;;;15.70;90.10;;;;;;5022813;28;20037;-86
2021/08/28 04:31:59;;;;;;;1.42;0.50;;;15.80;90.10;;;;;;5030691;28;20048;-86
2021/08/28 04:34:27;;;;;;;3.38;0.68;;;15.80;90.10;;;;;;5041004;28;20040;-87
2021/08/28 04:36:54;;;;;;;3.70;0.95;;;15.80;90.10;;;;;;5006595;28;20037;-87
2021/08/28 04:39:21;;;;;;;3.05;0.70;;;15.80;90.10;;;;;;5015988;28;20037;-86
2021/08/28 04:41:53;;;;;;;1.73;0.52;;;15.80;90.10;;;;;;5009705;28;20060;-86
2021/08/28 04:44:21;;;;;;;1.50;0.65;;;15.70;90.10;;;;;;5019033;28;20045;-85
2021/08/28 04:46:49;;;;;;;3.75;0.77;;;15.70;90.20;;;;;;5027722;28;20049;-85
2021/08/28 04:49:18;;;;;;;2.05;0.70;;;15.70;90.20;;;;;;5023550;28;20074;-85
2021/08/28 04:52:11;;;;;;;1.95;0.75;;;15.60;90.20;;;;;;5015552;28;20052;-85
2021/08/28 04:54:38;;;;;;;2.90;0.90;;;15.60;90.30;;;;;;5007538;28;20049;-85
2021/08/28 04:57:05;;;;;;;2.03;0.80;;;15.60;90.30;;;;;;5010264;28;20045;-85
2021/08/28 04:59:32;;;;;;;2.42;0.70;;;15.50;90.30;;;;;;5023411;28;20362;-86
2021/08/28 05:02:19;;;;;;;2.72;0.82;;;15.50;90.60;;;;;;5037206;28;20139;-85
2021/08/28 05:04:55;;;;;;;2.35;1.10;;;15.50;90.40;;;;;;5005428;28;20065;-85
2021/08/28 05:07:22;;;;;;;2.20;0.88;;;15.50;90.40;;;;;;5005864;28;20073;-86
2021/08/28 05:09:59;;;;;;;3.28;0.90;;;15.50;90.40;;;;;;5057003;28;20072;-85
2021/08/28 05:12:29;;;;;;;1.90;0.75;;;15.60;90.40;;;;;;5007593;28;20045;-85
2021/08/28 05:15:15;;;;;;;2.63;1.10;;;15.60;90.30;;;;;;5027928;28;20500;-85
2021/08/28 05:18:03;;;;;;;3.08;0.82;;;15.70;90.30;;;;;;5033629;28;20122;-85
2021/08/28 05:20:33;;;;;;;2.40;1.02;;;15.70;90.30;;;;;;5021474;28;20531;-85
2021/08/28 05:23:32;;;;;;;2.70;0.73;;;15.80;90.30;;;;;;5001033;28;20060;-87
2021/08/28 05:26:17;;;;;;;5.53;1.15;;;15.80;90.20;;;;;;5013258;28;20137;-84
2021/08/28 05:28:45;;;;;;;3.05;1.10;;;15.80;90.20;;;;;;5000362;28;20049;-86
2021/08/28 05:31:12;;;;;;;3.72;1.20;;;15.80;90.20;;;;;;5016414;28;20059;-86
2021/08/28 05:33:40;;;;;;;2.50;0.80;;;15.80;90.20;;;;;;4999901;28;20040;-86
2021/08/28 05:36:13;;;;;;;2.60;1.10;;;15.80;90.20;;;;;;5023541;28;20049;-85
2021/08/28 05:39:06;;;;;;;3.28;0.70;;;15.80;90.20;;;;;;5025825;28;20052;-86
2021/08/28 05:41:36;;;;;;;3.45;1.05;;;15.80;90.20;;;;;;5021416;28;20051;-86
2021/08/28 05:44:04;;;;;;;3.42;0.85;;;15.90;90.20;;;;;;5048453;28;20041;-86
2021/08/28 05:46:36;;;;;;;4.07;0.70;;;15.90;90.20;;;;;;5021392;28;20061;-86
2021/08/28 05:49:17;;;;;;;5.25;0.93;;;15.90;90.20;;;;;;5024981;28;20141;-86
2021/08/28 05:51:58;;;;;;;1.88;0.60;;;15.90;90.20;;;;;;5015564;28;20052;-86
2021/08/28 05:54:26;;;;;;;2.40;0.77;;;15.90;90.20;;;;;;5007150;28;20052;-87
2021/08/28 05:56:54;;;;;;;1.73;0.80;;;16.00;90.20;;;;;;5010289;28;20043;-86
2021/08/28 05:59:21;;;;;;;2.97;0.68;;;16.00;90.20;;;;;;5038142;28;20052;-86
2021/08/28 06:01:49;;;;;;;3.00;0.80;;;16.10;90.10;;;;;;5020101;28;20048;-86
2021/08/28 06:04:16;;;;;;;5.43;1.23;;;16.30;90.10;;;;;;5018185;28;20045;-86
2021/08/28 06:07:02;;;;;;;2.88;1.02;;;16.40;90.00;;;;;;5009852;28;20147;-86
2021/08/28 06:09:59;;;;;;;4.97;1.33;;;16.40;89.90;;;;;;5039262;28;20126;-86
2021/08/28 06:12:55;;;;;;;3.17;0.95;;;16.40;89.80;;;;;;4958739;28;20138;-86
2021/08/28 06:15:41;;;;;;;3.72;0.93;;;16.50;89.80;;;;;;5028668;28;20500;-86
2021/08/28 06:18:13;;;;;;;;;;;16.50;89.70;;;;;;5028811;28;20128;-86
2021/08/28 06:20:40;;;;;;;3.90;1.20;;;16.50;89.70;;;;;;5014732;28;20377;-85
2021/08/28 06:23:09;;;;;;;2.72;1.40;;;16.50;90.20;;;;;;5029398;28;20107;-85
2021/08/28 06:25:59;;;;;;;3.75;1.65;;;16.50;89.80;;;;;;5025841;28;20112;-86
2021/08/28 06:28:26;;;;;;;2.22;1.02;;;16.60;89.60;;;;;;5002001;28;20037;-85
2021/08/28 06:30:53;;;;;;;3.25;1.00;;;16.60;89.50;;;;;;5020000;28;20048;-86
2021/08/28 06:33:20;;;;;;;2.45;1.10;;;16.60;89.50;;;;;;5015638;28;20037;-85
2021/08/28 06:35:48;;;;;;;2.88;0.93;;;16.60;89.50;;;;;;5021863;28;20041;-86
2021/08/28 06:38:33;;;;;;;3.00;1.02;;;16.60;89.50;;;;;;5021717;28;20123;-85
2021/08/28 06:41:26;;;;;;;2.88;1.10;;;16.50;89.70;;;;;;5031602;28;20037;-86
2021/08/28 06:44:12;;;;;;;2.17;0.88;;;16.60;89.90;;;;;;5022622;28;20088;-86
2021/08/28 06:47:08;;;;;;;1.92;0.70;;;16.60;89.80;;;;;;5017694;28;20392;-85
2021/08/28 06:49:53;;;;;;;3.70;1.00;;;16.70;89.70;;;;;;5024864;28;20515;-85
2021/08/28 06:52:56;;;;;;;1.85;1.00;;;16.70;89.60;;;;;;4969360;28;20066;-86
2021/08/28 06:55:49;;;;;;;3.72;0.82;;;16.70;89.70;;;;;;5009414;28;20057;-86
2021/08/28 06:58:34;;;;;;;2.67;1.02;;;16.80;89.70;;;;;;5029638;28;20051;-86
2021/08/28 07:01:21;;;;;;;3.90;1.25;;;16.80;89.60;;;;;;5043923;28;20142;-86
2021/08/28 07:04:01;;;;;;;2.47;0.98;;;16.90;90.00;;;;;;5026944;28;20052;-86
2021/08/28 07:06:47;;;;;;;3.28;1.35;;;17.00;89.40;;;;;;5028155;28;20044;-86
2021/08/28 07:09:14;;;;;;;3.05;1.20;;;17.00;89.10;;;;;;5008927;28;20051;-85
2021/08/28 07:11:41;;;;;;;3.45;1.13;;;17.10;89.20;;;;;;5005782;28;20075;-86
2021/08/28 07:14:08;;;;;;;5.28;1.52;;;17.10;89.20;;;;;;5009097;28;20041;-86
2021/08/28 07:16:35;;;;;;;3.03;1.23;;;17.10;89.20;;;;;;5003985;28;21709;-87
2021/08/28 07:19:02;;;;;;;3.42;1.73;;;17.20;89.30;;;;;;4998801;28;20048;-87
2021/08/28 07:21:30;;;;;;;3.13;1.65;;;17.20;89.10;;;;;;4997805;28;20178;-87
2021/08/28 07:23:57;;;;;;;2.65;1.13;;;17.20;89.10;;;;;;5013860;28;20041;-88
2021/08/28 07:26:32;;;;;;;2.80;1.25;;;17.20;89.20;;;;;;5023893;28;20132;-87
2021/08/28 07:29:29;;;;;;;3.72;1.35;;;17.30;89.20;;;;;;5023881;28;20055;-87
2021/08/28 07:31:56;;;;;;;4.13;1.20;;;17.40;89.00;;;;;;5018766;28;20059;-87
2021/08/28 07:34:23;;;;;;;4.05;1.20;;;17.40;88.90;;;;;;5021923;28;20039;-86
2021/08/28 07:36:50;;;;;;;2.75;1.17;;;17.50;88.80;;;;;;5024659;28;20051;-85
2021/08/28 07:39:17;;;;;;;2.47;1.30;;;17.50;88.70;;;;;;4991215;28;20049;-86
2021/08/28 07:41:44;;;;;;;3.72;1.48;;;17.60;88.70;;;;;;5047241;28;20041;-87
2021/08/28 07:44:11;;;;;;;5.28;1.98;;;17.60;88.70;;;;;;5040581;28;20056;-87
2021/08/28 07:46:39;;;;;;;3.40;1.80;;;17.60;88.60;;;;;;5032444;28;20054;-85
2021/08/28 07:49:15;;;;;;;3.90;1.52;;;17.70;89.20;;;;;;5022663;28;20044;-85
2021/08/28 07:51:46;;;;;;;4.05;1.48;;;17.70;88.50;;;;;;5037783;28;20055;-84
2021/08/28 07:54:15;;;;;;;5.13;2.15;;;17.80;88.30;;;;;;5004129;28;20455;-85
2021/08/28 07:56:44;;;;;;;5.70;1.90;;;17.90;88.20;;;;;;4999643;28;20029;-85
2021/08/28 07:59:11;;;;;;;5.05;1.70;;;17.90;88.00;;;;;;5001496;28;20524;-85
2021/08/28 08:01:40;;;;;;;5.35;1.60;;;18.00;88.40;;;;;;4995284;28;20497;-84
2021/08/28 08:04:07;;;;;;;4.43;2.05;;;18.10;87.80;;;;;;4984909;28;20041;-85
2021/08/28 08:07:04;;;;;;;5.97;2.10;;;18.10;87.60;;;;;;4988444;28;20069;-85
2021/08/28 08:09:54;;;;;;;5.90;1.80;;;18.20;87.50;;;;;;4990171;28;20050;-85
2021/08/28 08:12:40;;;;;;;4.70;1.90;;;18.10;87.40;;;;;;5023994;28;20183;-85
2021/08/28 08:15:45;;;;;;;5.63;2.08;;;18.10;87.30;;;;;;4963581;28;20618;-84
2021/08/28 08:18:32;;;;;;;5.15;1.55;;;18.10;87.40;;;;;;4960550;28;20133;-84
2021/08/28 08:21:28;;;;;;;4.00;1.13;;;18.20;87.30;;;;;;4960671;28;20043;-84
2021/08/28 08:24:14;;;;;;;3.08;1.48;;;18.20;87.20;;;;;;5007237;28;20127;-85
2021/08/28 08:26:59;;;;;;;3.53;1.05;;;18.30;87.10;;;;;;5023297;28;20048;-85
2021/08/28 08:29:52;;;;;;;3.97;1.48;;;18.30;87.00;;;;;;5005518;28;20033;-86
2021/08/28 08:32:29;;;;;;;3.95;1.85;;;18.30;86.90;;;;;;5011153;28;20037;-88
2021/08/28 08:34:57;;;;;;;3.53;1.50;;;18.40;86.90;;;;;;5017757;28;20084;-87
2021/08/28 08:37:31;;;;;;;3.50;1.35;;;18.40;86.80;;;;;;5023009;28;20041;-84
2021/08/28 08:40:01;;;;;;;2.17;1.20;;;18.50;86.80;;;;;;4999657;28;20460;-84
2021/08/28 08:42:36;;;;;;;2.55;1.30;;;18.60;86.70;;;;;;4986496;28;20389;-84
2021/08/28 08:45:04;;;;;;;3.30;1.98;;;18.70;86.40;;;;;;4999304;28;20052;-84
2021/08/28 08:47:35;;;;;;;3.60;1.52;;;18.90;86.10;;;;;;5033795;28;20497;-88
2021/08/28 08:50:04;;;;;;;3.78;2.17;;;19.00;85.50;;;;;;5033565;28;20048;-85
2021/08/28 08:52:46;;;;;;;3.65;1.73;;;19.10;85.20;;;;;;5042261;28;20041;-85
2021/08/28 08:55:34;;;;;;;4.55;2.30;;;19.20;85.10;;;;;;5013602;28;20528;-85
2021/08/28 08:58:16;;;;;;;5.28;2.25;;;19.20;84.90;;;;;;5013125;28;20159;-83
2021/08/28 09:00:54;;;;;;;5.35;2.42;;;19.30;84.60;;;;;;5033330;28;20040;-82
2021/08/28 09:03:34;;;;;;;5.22;2.42;;;19.20;84.60;;;;;;5024083;28;20056;-88
2021/08/28 09:06:04;;;;;;;4.80;2.58;;;19.30;84.30;;;;;;5020706;28;20118;-85
2021/08/28 09:08:36;;;;;;;4.22;2.20;;;19.20;84.20;;;;;;5022264;28;20049;-86
2021/08/28 09:11:03;;;;;;;5.13;1.70;;;19.30;84.10;;;;;;5016541;28;20052;-84
2021/08/28 09:13:30;;;;;;;5.22;2.08;;;19.20;84.00;;;;;;5005118;28;20056;-84
2021/08/28 09:16:02;;;;;;;4.97;2.50;;;19.30;83.90;;;;;;5015685;28;20065;-85
2021/08/28 09:18:51;;;;;;;3.15;1.85;;;19.20;83.90;;;;;;5020292;28;20047;-84
2021/08/28 09:21:21;;;;;;;3.10;1.58;;;19.30;83.80;;;;;;5014839;28;20432;-85
2021/08/28 09:23:57;;;;;;;4.53;2.05;;;19.50;83.70;;;;;;5000444;28;20049;-85
2021/08/28 09:26:36;;;;;;;5.32;2.20;;;19.50;83.00;;;;;;5017648;28;20516;-81
2021/08/28 09:29:04;;;;;;;4.15;2.15;;;19.60;82.80;;;;;;5030369;28;20041;-81
2021/08/28 09:31:50;;;;;;;4.70;2.00;;;19.70;82.70;;;;;;5020863;28;20041;-78
2021/08/28 09:34:18;;;;;;;4.43;2.05;;;19.70;82.10;;;;;;5035182;28;20493;-78
2021/08/28 09:41:09;;;;;;;5.60;2.30;;;19.80;81.20;;;;;;5032571;28;20476;-79
2021/08/28 09:43:36;;;;;;;2.78;1.58;;;19.70;82.30;;;;;;5015135;28;20045;-78
2021/08/28 09:46:09;;;;;;;3.53;1.83;;;19.70;81.60;;;;;;5022378;28;20128;-78
2021/08/28 09:48:36;;;;;;;4.10;1.63;;;19.70;82.30;;;;;;5004165;28;20888;-78
2021/08/28 09:51:03;;;;;;;3.35;1.30;;;19.80;81.70;;;;;;5003423;28;20061;-80
2021/08/28 09:53:42;;;;;;;4.88;1.88;;;19.90;81.30;;;;;;4998186;28;20052;-79
2021/08/28 09:56:09;;;;;;;4.38;1.77;;;19.90;81.00;;;;;;4999488;28;20041;-79
2021/08/28 09:58:40;;;;;;;2.90;1.50;;;19.90;80.90;;;;;;5033526;28;20048;-80
2021/08/28 10:01:08;;;;;;;4.43;2.03;;;19.80;81.30;;;;;;5030495;28;20029;-78
2021/08/28 10:03:35;;;;;;;3.47;1.80;;;19.80;81.20;;;;;;5018386;28;20418;-78
2021/08/28 10:06:03;;;;;;;3.72;1.92;;;19.80;80.40;;;;;;5002373;28;20033;-78
2021/08/28 10:08:31;;;;;;;3.97;1.67;;;19.90;80.20;;;;;;5029007;28;20059;-81
2021/08/28 10:11:00;;;;;;;2.97;1.55;;;19.90;79.90;;;;;;5015959;28;20038;-78
2021/08/28 10:13:33;;;;;;;4.00;1.90;;;20.00;79.30;;;;;;5019898;28;20505;-80
2021/08/28 10:16:02;;;;;;;4.72;1.83;;;20.20;78.60;;;;;;5034011;28;20087;-78
2021/08/28 10:18:33;;;;;;;4.05;2.08;;;20.50;77.80;;;;;;5021314;28;20048;-79
2021/08/28 10:21:02;;;;;;;4.22;2.00;;;20.60;76.60;;;;;;5034310;28;20033;-78
2021/08/28 10:23:35;;;;;;;3.63;1.40;;;20.80;76.70;;;;;;5034192;28;20041;-80
2021/08/28 10:26:05;;;;;;;3.08;1.50;;;20.80;76.40;;;;;;5001779;28;20041;-79
2021/08/28 10:28:32;;;;;;;2.88;1.48;;;20.90;76.20;;;;;;5016219;28;20115;-79
2021/08/28 10:31:00;;;;;;;4.07;1.50;;;20.90;76.00;;;;;;5018986;28;20098;-81
2021/08/28 10:33:27;;;;;;;2.85;1.10;;;20.90;76.50;;;;;;4999304;28;20080;-79
2021/08/28 10:35:54;;;;;;;2.63;1.42;;;20.90;76.00;;;;;;4997084;28;20086;-78
2021/08/28 10:38:22;;;;;;;3.83;1.52;;;21.00;75.80;;;;;;4996215;28;20110;-79
2021/08/28 10:40:54;;;;;;;3.35;1.33;;;21.00;75.30;;;;;;5037541;28;20107;-79
2021/08/28 10:43:22;;;;;;;3.25;1.50;;;21.00;74.90;;;;;;5031028;28;20050;-80
2021/08/28 10:45:50;;;;;;;4.68;1.27;;;20.90;74.70;;;;;;5006720;28;20042;-80
2021/08/28 10:48:59;;;;;;;3.70;1.30;;;21.00;74.70;;;;;;5008570;28;20053;-80
2021/08/28 10:51:39;;;;;;;1.88;0.90;;;21.10;74.60;;;;;;5022579;28;20052;-81
2021/08/28 10:54:12;;;;;;;2.53;1.20;;;21.10;74.50;;;;;;5040662;28;20049;-80
2021/08/28 10:56:54;;;;;;;;;;;21.10;74.30;;;;;;5025918;28;20409;-80
2021/08/28 10:59:29;;;;;;;2.47;1.25;;;21.00;74.70;;;;;;5040148;28;19987;-80
2021/08/28 11:02:06;;;;;;;2.28;1.25;;;20.90;74.30;;;;;;5040053;28;20042;-82
2021/08/28 11:04:45;;;;;;;2.42;1.23;;;21.00;74.00;;;;;;5016380;28;20141;-80
2021/08/28 11:07:20;;;;;;;3.05;1.30;;;21.00;74.00;;;;;;5022715;28;20049;-80
2021/08/28 11:10:11;;;;;;;5.03;1.33;;;21.00;73.70;;;;;;5026468;28;20045;-81
2021/08/28 11:13:00;;;;;;;2.35;1.02;;;21.00;73.50;;;;;;5043814;28;20049;-81
2021/08/28 11:15:30;;;;;;;2.30;1.08;;;20.90;73.80;;;;;;5046356;28;20070;-78
2021/08/28 11:18:14;;;;;;;3.50;1.52;;;20.90;73.40;;;;;;5037234;28;20144;-79
2021/08/28 11:20:48;;;;;;;4.03;1.58;;;21.00;72.90;;;;;;5039031;28;20095;-80
2021/08/28 11:23:21;;;;;;;2.63;1.35;;;21.00;73.00;;;;;;5025493;28;20045;-80
2021/08/28 11:25:51;;;;;;;2.20;1.08;;;21.00;73.20;;;;;;5025848;28;20103;-79
2021/08/28 11:28:21;;;;;;;2.53;0.88;;;21.10;73.00;;;;;;5021257;28;20114;-82
2021/08/28 11:30:48;;;;;;;2.35;1.05;;;21.10;72.90;;;;;;5013310;28;20041;-80
2021/08/28 11:33:23;;;;;;;3.22;1.40;;;21.20;72.70;;;;;;5021092;28;20060;-80
2021/08/28 11:35:52;;;;;;;3.03;1.35;;;21.40;71.90;;;;;;5045948;28;20037;-81
2021/08/28 11:38:25;;;;;;;1.27;0.73;;;21.90;70.50;;;;;;5053352;28;20485;-82
2021/08/28 11:41:01;;;;;;;2.42;1.17;;;22.60;69.60;;;;;;5009652;28;20049;-82
2021/08/28 11:43:44;;;;;;;3.70;1.10;;;22.50;68.80;;;;;;5022857;28;20485;-81
2021/08/28 11:46:24;;;;;;;1.55;0.80;;;22.50;69.00;;;;;;5035456;28;20164;-82
2021/08/28 11:48:51;;;;;;;2.10;0.70;;;22.90;68.40;;;;;;5051085;28;20052;-80
2021/08/28 11:51:24;;;;;;;2.83;1.00;;;22.90;68.40;;;;;;5019823;28;20152;-80
2021/08/28 11:53:56;;;;;;;2.58;0.85;;;22.70;68.90;;;;;;5035561;28;20125;-81
2021/08/28 11:56:32;;;;;;;2.15;0.80;;;22.30;69.70;;;;;;5019497;28;20061;-80
2021/08/28 11:59:06;;;;;;;2.35;0.73;;;22.10;70.50;;;;;;5024019;28;20095;-82
2021/08/28 12:01:42;;;;;;;1.98;0.82;;;22.00;70.80;;;;;;5021516;28;20040;-81
2021/08/28 12:04:18;;;;;;;1.63;0.73;;;22.60;70.10;;;;;;5016604;28;20125;-81
2021/08/28 12:06:52;;;;;;;1.88;0.63;;;23.70;68.00;;;;;;4998860;28;20040;-80
2021/08/28 12:09:24;;;;;;;4.68;0.90;;;24.10;66.80;;;;;;5019351;28;20052;-80
2021/08/28 12:11:53;;;;;;;2.80;0.93;;;23.40;67.00;;;;;;4989295;28;20045;-80
2021/08/28 12:14:24;;;;;;;1.42;0.73;;;22.80;68.60;;;;;;5026477;28;20069;-79
2021/08/28 12:16:52;;;;;;;1.55;0.63;;;22.40;69.50;;;;;;5019282;28;20048;-81
2021/08/28 12:19:24;;;;;;;2.95;0.95;;;22.30;70.20;;;;;;5012881;28;20051;-81
2021/08/28 12:21:57;;;;;;;1.63;0.80;;;22.20;70.20;;;;;;5024751;28;20034;-81
2021/08/28 12:24:33;;;;;;;2.22;0.85;;;22.10;70.20;;;;;;5030329;28;20055;-79
2021/08/28 12:27:12;;;;;;;1.88;0.80;;;21.70;70.30;;;;;;5021103;28;20099;-82
2021/08/28 12:29:43;;;;;;;2.15;0.98;;;21.40;71.00;;;;;;5032449;28;20457;-76
2021/08/28 12:32:27;;;;;;;2.83;0.93;;;21.10;71.60;;;;;;5012118;28;20049;-79
2021/08/28 12:34:57;;;;;;;3.20;0.90;;;21.00;71.60;;;;;;5043372;28;20108;-79
2021/08/28 12:37:25;;;;;;;2.50;0.80;;;20.90;71.70;;;;;;5014886;28;20072;-77
2021/08/28 12:40:15;;;;;;;;;;;;;;;;;;;;;
2021/08/28 12:42:53;;;;;;;1.88;0.75;;;21.10;71.20;;;;;;5040783;28;20033;-77
2021/08/28 12:45:21;;;;;;;3.72;0.95;;;21.30;70.90;;;;;;5032796;28;20095;-77
2021/08/28 12:47:48;;;;;;;2.17;0.80;;;21.50;70.40;;;;;;5003708;28;20558;-79
2021/08/28 12:50:18;;;;;;;3.08;1.00;;;21.60;70.10;;;;;;5013686;28;20049;-78
2021/08/28 12:52:47;;;;;;;1.70;0.70;;;21.60;69.90;;;;;;5031838;28;20382;-80
2021/08/28 12:55:29;;;;;;;1.85;0.80;;;21.70;69.60;;;;;;5032040;28;20485;-78
2021/08/28 12:57:59;;;;;;;1.75;0.90;;;21.70;69.40;;;;;;5030403;28;20049;-79
2021/08/28 13:00:31;;;;;;;2.10;0.70;;;21.50;69.80;;;;;;5037628;28;20041;-78
2021/08/28 13:02:59;;;;;;;3.75;0.98;;;21.30;70.10;;;;;;5014904;28;20048;-78
2021/08/28 13:05:32;;;;;;;2.38;1.00;;;21.10;70.60;;;;;;5008289;28;20045;-79
2021/08/28 13:08:00;;;;;;;2.70;0.88;;;20.90;71.50;;;;;;5034382;28;20529;-79
2021/08/28 13:10:30;;;;;;;2.50;1.00;;;20.80;71.20;;;;;;5018141;28;20049;-78
2021/08/28 13:13:03;;;;;;;3.17;0.70;;;20.80;71.40;;;;;;5014956;28;20048;-78
2021/08/28 13:15:30;;;;;;;2.92;0.80;;;20.80;71.20;;;;;;5033945;28;20052;-79
2021/08/28 13:18:11;;;;;;;2.33;0.77;;;20.80;71.10;;;;;;5016529;28;20070;-79
2021/08/28 13:20:42;;;;;;;1.17;0.50;;;20.90;71.00;;;;;;5043983;28;20665;-79
2021/08/28 13:23:31;;;;;;;1.83;1.15;;;21.00;70.70;;;;;;5039270;28;20451;-79
2021/08/28 13:26:10;;;;;;;3.28;0.80;;;21.20;70.50;;;;;;5036174;28;20041;-79
2021/08/28 13:28:45;;;;;;;3.47;0.82;;;21.50;70.10;;;;;;5020765;28;20127;-78